sensor_id;sensor_type;location;lat;lon;timestamp;temperature;humidity
298;DHT22;133;49.626;9.680;2023-07-13T00:00:12;21.10;73.10
298;DHT22;133;49.626;9.680;2023-07-13T00:02:41;21.00;70.60
298;DHT22;133;49.626;9.680;2023-07-13T00:05:07;21.00;72.10
298;DHT22;133;49.626;9.680;2023-07-13T00:07:33;20.90;72.50
298;DHT22;133;49.626;9.680;2023-07-13T00:09:59;20.90;72.20
298;DHT22;133;49.626;9.680;2023-07-13T00:12:31;20.80;72.80
298;DHT22;133;49.626;9.680;2023-07-13T00:14:58;20.80;73.00
298;DHT22;133;49.626;9.680;2023-07-13T00:17:26;20.70;72.10
298;DHT22;133;49.626;9.680;2023-07-13T00:19:53;20.70;71.70
298;DHT22;133;49.626;9.680;2023-07-13T00:22:19;20.60;71.50
298;DHT22;133;49.626;9.680;2023-07-13T00:24:45;20.50;72.10
298;DHT22;133;49.626;9.680;2023-07-13T00:27:11;20.40;72.00
298;DHT22;133;49.626;9.680;2023-07-13T00:29:37;20.30;72.00
298;DHT22;133;49.626;9.680;2023-07-13T00:32:04;20.30;72.10
298;DHT22;133;49.626;9.680;2023-07-13T00:34:30;20.20;72.40
298;DHT22;133;49.626;9.680;2023-07-13T00:36:56;20.10;71.40
298;DHT22;133;49.626;9.680;2023-07-13T00:39:22;20.10;71.70
298;DHT22;133;49.626;9.680;2023-07-13T00:41:48;20.00;72.30
298;DHT22;133;49.626;9.680;2023-07-13T00:44:15;19.90;72.50
298;DHT22;133;49.626;9.680;2023-07-13T00:46:41;19.90;73.50
298;DHT22;133;49.626;9.680;2023-07-13T00:49:17;19.80;73.50
298;DHT22;133;49.626;9.680;2023-07-13T00:54:19;19.70;72.40
298;DHT22;133;49.626;9.680;2023-07-13T00:56:50;19.70;72.30
298;DHT22;133;49.626;9.680;2023-07-13T00:59:17;19.70;72.30
298;DHT22;133;49.626;9.680;2023-07-13T01:01:44;19.70;72.50
298;DHT22;133;49.626;9.680;2023-07-13T01:04:10;19.70;72.00
298;DHT22;133;49.626;9.680;2023-07-13T01:06:37;19.70;72.30
298;DHT22;133;49.626;9.680;2023-07-13T01:09:03;19.60;71.80
298;DHT22;133;49.626;9.680;2023-07-13T01:11:30;19.60;72.00
298;DHT22;133;49.626;9.680;2023-07-13T01:13:55;19.60;71.70
298;DHT22;133;49.626;9.680;2023-07-13T01:16:25;19.60;71.60
298;DHT22;133;49.626;9.680;2023-07-13T01:18:51;19.50;72.60
298;DHT22;133;49.626;9.680;2023-07-13T01:21:17;19.40;72.50
298;DHT22;133;49.626;9.680;2023-07-13T01:23:44;19.50;71.50
298;DHT22;133;49.626;9.680;2023-07-13T01:26:10;19.60;70.90
298;DHT22;133;49.626;9.680;2023-07-13T01:28:37;19.60;70.00
298;DHT22;133;49.626;9.680;2023-07-13T01:31:03;19.60;70.90
298;DHT22;133;49.626;9.680;2023-07-13T01:33:29;19.60;71.40
298;DHT22;133;49.626;9.680;2023-07-13T01:35:55;19.60;72.00
298;DHT22;133;49.626;9.680;2023-07-13T01:38:24;19.60;73.00
298;DHT22;133;49.626;9.680;2023-07-13T01:40:53;19.50;72.40
298;DHT22;133;49.626;9.680;2023-07-13T01:43:19;19.50;72.60
298;DHT22;133;49.626;9.680;2023-07-13T01:45:45;19.50;72.40
298;DHT22;133;49.626;9.680;2023-07-13T01:48:11;19.40;69.90
298;DHT22;133;49.626;9.680;2023-07-13T01:50:38;19.40;70.90
298;DHT22;133;49.626;9.680;2023-07-13T01:53:03;19.30;72.60
298;DHT22;133;49.626;9.680;2023-07-13T01:55:29;19.20;72.80
298;DHT22;133;49.626;9.680;2023-07-13T01:57:56;19.20;73.00
298;DHT22;133;49.626;9.680;2023-07-13T02:00:21;19.20;73.00
298;DHT22;133;49.626;9.680;2023-07-13T02:02:47;19.10;73.20
298;DHT22;133;49.626;9.680;2023-07-13T02:05:14;19.00;73.30
298;DHT22;133;49.626;9.680;2023-07-13T02:07:40;18.90;74.00
298;DHT22;133;49.626;9.680;2023-07-13T02:10:07;18.70;74.20
298;DHT22;133;49.626;9.680;2023-07-13T02:12:34;18.60;74.40
298;DHT22;133;49.626;9.680;2023-07-13T02:14:59;18.50;74.80
298;DHT22;133;49.626;9.680;2023-07-13T02:17:26;18.40;74.60
298;DHT22;133;49.626;9.680;2023-07-13T02:19:52;18.40;75.30
298;DHT22;133;49.626;9.680;2023-07-13T02:22:18;18.30;75.10
298;DHT22;133;49.626;9.680;2023-07-13T02:24:43;18.30;75.70
298;DHT22;133;49.626;9.680;2023-07-13T02:27:09;18.20;75.60
298;DHT22;133;49.626;9.680;2023-07-13T02:29:35;18.20;76.10
298;DHT22;133;49.626;9.680;2023-07-13T02:32:00;18.20;75.70
298;DHT22;133;49.626;9.680;2023-07-13T02:34:26;18.10;76.40
298;DHT22;133;49.626;9.680;2023-07-13T02:36:51;18.10;76.60
298;DHT22;133;49.626;9.680;2023-07-13T02:39:17;18.00;76.00
298;DHT22;133;49.626;9.680;2023-07-13T02:41:43;18.10;75.50
298;DHT22;133;49.626;9.680;2023-07-13T02:44:08;18.10;74.90
298;DHT22;133;49.626;9.680;2023-07-13T02:46:36;18.10;75.30
298;DHT22;133;49.626;9.680;2023-07-13T02:49:03;18.10;75.40
298;DHT22;133;49.626;9.680;2023-07-13T02:51:29;18.10;75.80
298;DHT22;133;49.626;9.680;2023-07-13T02:53:54;18.00;75.80
298;DHT22;133;49.626;9.680;2023-07-13T02:56:25;18.00;76.60
298;DHT22;133;49.626;9.680;2023-07-13T02:58:51;17.90;75.50
298;DHT22;133;49.626;9.680;2023-07-13T03:01:17;17.90;75.60
298;DHT22;133;49.626;9.680;2023-07-13T03:03:45;17.90;74.80
298;DHT22;133;49.626;9.680;2023-07-13T03:06:11;18.00;74.30
298;DHT22;133;49.626;9.680;2023-07-13T03:08:37;17.90;73.70
298;DHT22;133;49.626;9.680;2023-07-13T03:11:15;17.90;73.70
298;DHT22;133;49.626;9.680;2023-07-13T03:13:41;18.00;74.30
298;DHT22;133;49.626;9.680;2023-07-13T03:16:08;18.00;73.40
298;DHT22;133;49.626;9.680;2023-07-13T03:18:35;18.00;74.90
298;DHT22;133;49.626;9.680;2023-07-13T03:21:01;17.80;73.80
298;DHT22;133;49.626;9.680;2023-07-13T03:23:27;17.90;73.90
298;DHT22;133;49.626;9.680;2023-07-13T03:26:08;17.90;74.40
298;DHT22;133;49.626;9.680;2023-07-13T03:28:34;18.00;73.60
298;DHT22;133;49.626;9.680;2023-07-13T03:31:04;18.00;74.10
298;DHT22;133;49.626;9.680;2023-07-13T03:33:30;18.00;73.60
298;DHT22;133;49.626;9.680;2023-07-13T03:35:56;17.90;73.80
298;DHT22;133;49.626;9.680;2023-07-13T03:38:22;17.90;73.80
298;DHT22;133;49.626;9.680;2023-07-13T03:40:48;17.90;74.30
298;DHT22;133;49.626;9.680;2023-07-13T03:43:14;17.90;74.20
298;DHT22;133;49.626;9.680;2023-07-13T03:45:40;17.90;75.80
298;DHT22;133;49.626;9.680;2023-07-13T03:48:06;17.80;75.80
298;DHT22;133;49.626;9.680;2023-07-13T03:50:31;17.80;75.80
298;DHT22;133;49.626;9.680;2023-07-13T03:52:58;17.80;76.30
298;DHT22;133;49.626;9.680;2023-07-13T03:55:24;17.70;77.10
298;DHT22;133;49.626;9.680;2023-07-13T03:57:57;17.60;77.20
298;DHT22;133;49.626;9.680;2023-07-13T04:00:23;17.60;76.50
298;DHT22;133;49.626;9.680;2023-07-13T04:02:49;17.50;77.10
298;DHT22;133;49.626;9.680;2023-07-13T04:05:15;17.50;77.70
298;DHT22;133;49.626;9.680;2023-07-13T04:07:41;17.50;77.70
298;DHT22;133;49.626;9.680;2023-07-13T04:10:07;17.40;77.70
298;DHT22;133;49.626;9.680;2023-07-13T04:12:32;17.40;78.10
298;DHT22;133;49.626;9.680;2023-07-13T04:14:58;17.40;78.00
298;DHT22;133;49.626;9.680;2023-07-13T04:17:24;17.40;77.80
298;DHT22;133;49.626;9.680;2023-07-13T04:19:49;17.50;77.60
298;DHT22;133;49.626;9.680;2023-07-13T04:22:15;17.50;77.00
298;DHT22;133;49.626;9.680;2023-07-13T04:24:40;17.50;78.90
298;DHT22;133;49.626;9.680;2023-07-13T04:27:06;17.50;78.70
298;DHT22;133;49.626;9.680;2023-07-13T04:29:32;17.60;79.00
298;DHT22;133;49.626;9.680;2023-07-13T04:31:58;17.70;80.20
298;DHT22;133;49.626;9.680;2023-07-13T04:34:23;17.70;79.30
298;DHT22;133;49.626;9.680;2023-07-13T04:36:50;17.80;79.20
298;DHT22;133;49.626;9.680;2023-07-13T04:39:15;17.80;78.60
298;DHT22;133;49.626;9.680;2023-07-13T04:41:41;17.90;78.60
298;DHT22;133;49.626;9.680;2023-07-13T04:44:07;18.00;78.00
298;DHT22;133;49.626;9.680;2023-07-13T04:46:32;18.00;77.30
298;DHT22;133;49.626;9.680;2023-07-13T04:48:58;18.10;77.40
298;DHT22;133;49.626;9.680;2023-07-13T04:51:24;18.10;77.90
298;DHT22;133;49.626;9.680;2023-07-13T04:53:50;18.20;78.10
298;DHT22;133;49.626;9.680;2023-07-13T04:56:15;18.20;78.00
298;DHT22;133;49.626;9.680;2023-07-13T04:58:41;18.20;77.50
298;DHT22;133;49.626;9.680;2023-07-13T05:01:07;18.30;77.50
298;DHT22;133;49.626;9.680;2023-07-13T05:03:34;18.30;78.10
298;DHT22;133;49.626;9.680;2023-07-13T05:06:05;18.30;77.40
298;DHT22;133;49.626;9.680;2023-07-13T05:08:31;18.30;77.60
298;DHT22;133;49.626;9.680;2023-07-13T05:10:58;18.30;78.00
298;DHT22;133;49.626;9.680;2023-07-13T05:13:24;18.30;78.50
298;DHT22;133;49.626;9.680;2023-07-13T05:16:01;18.30;78.10
298;DHT22;133;49.626;9.680;2023-07-13T05:18:28;18.30;78.40
298;DHT22;133;49.626;9.680;2023-07-13T05:20:58;18.20;78.20
298;DHT22;133;49.626;9.680;2023-07-13T05:23:24;18.20;78.70
298;DHT22;133;49.626;9.680;2023-07-13T05:25:50;18.20;78.10
298;DHT22;133;49.626;9.680;2023-07-13T05:28:16;18.20;78.10
298;DHT22;133;49.626;9.680;2023-07-13T05:30:46;18.30;77.60
298;DHT22;133;49.626;9.680;2023-07-13T05:33:12;18.30;76.10
298;DHT22;133;49.626;9.680;2023-07-13T05:35:38;18.30;76.00
298;DHT22;133;49.626;9.680;2023-07-13T05:38:03;18.40;76.50
298;DHT22;133;49.626;9.680;2023-07-13T05:40:29;18.40;76.40
298;DHT22;133;49.626;9.680;2023-07-13T05:42:54;18.50;76.70
298;DHT22;133;49.626;9.680;2023-07-13T05:45:20;18.50;77.80
298;DHT22;133;49.626;9.680;2023-07-13T05:47:46;18.60;78.90
298;DHT22;133;49.626;9.680;2023-07-13T05:50:11;18.60;79.20
298;DHT22;133;49.626;9.680;2023-07-13T05:52:37;18.60;78.70
298;DHT22;133;49.626;9.680;2023-07-13T05:55:03;18.60;77.50
298;DHT22;133;49.626;9.680;2023-07-13T05:57:30;18.60;76.60
298;DHT22;133;49.626;9.680;2023-07-13T05:59:56;18.60;76.40
298;DHT22;133;49.626;9.680;2023-07-13T06:02:21;18.60;75.40
298;DHT22;133;49.626;9.680;2023-07-13T06:04:47;18.60;75.80
298;DHT22;133;49.626;9.680;2023-07-13T06:07:12;18.60;76.90
298;DHT22;133;49.626;9.680;2023-07-13T06:09:38;18.70;77.40
298;DHT22;133;49.626;9.680;2023-07-13T06:12:04;18.80;77.60
298;DHT22;133;49.626;9.680;2023-07-13T06:14:30;18.90;77.70
298;DHT22;133;49.626;9.680;2023-07-13T06:16:56;18.90;77.70
298;DHT22;133;49.626;9.680;2023-07-13T06:19:21;19.00;77.30
298;DHT22;133;49.626;9.680;2023-07-13T06:21:47;19.10;75.90
298;DHT22;133;49.626;9.680;2023-07-13T06:24:13;19.10;76.30
298;DHT22;133;49.626;9.680;2023-07-13T06:26:38;19.20;76.40
298;DHT22;133;49.626;9.680;2023-07-13T06:29:04;19.30;76.50
298;DHT22;133;49.626;9.680;2023-07-13T06:31:32;19.30;76.00
298;DHT22;133;49.626;9.680;2023-07-13T06:33:58;19.40;74.40
298;DHT22;133;49.626;9.680;2023-07-13T06:36:23;19.40;71.70
298;DHT22;133;49.626;9.680;2023-07-13T06:38:49;19.40;73.10
298;DHT22;133;49.626;9.680;2023-07-13T06:41:15;19.50;74.00
298;DHT22;133;49.626;9.680;2023-07-13T06:43:40;19.60;73.70
298;DHT22;133;49.626;9.680;2023-07-13T06:46:06;19.60;73.50
298;DHT22;133;49.626;9.680;2023-07-13T06:48:32;19.70;72.00
298;DHT22;133;49.626;9.680;2023-07-13T06:50:58;19.70;71.60
298;DHT22;133;49.626;9.680;2023-07-13T06:53:23;19.80;72.20
298;DHT22;133;49.626;9.680;2023-07-13T06:55:49;19.80;71.40
298;DHT22;133;49.626;9.680;2023-07-13T06:58:16;19.90;70.20
298;DHT22;133;49.626;9.680;2023-07-13T07:00:42;19.90;69.80
298;DHT22;133;49.626;9.680;2023-07-13T07:03:08;20.00;68.80
298;DHT22;133;49.626;9.680;2023-07-13T07:05:34;20.00;68.20
298;DHT22;133;49.626;9.680;2023-07-13T07:07:59;20.00;69.00
298;DHT22;133;49.626;9.680;2023-07-13T07:10:25;20.20;68.00
298;DHT22;133;49.626;9.680;2023-07-13T07:12:51;20.10;67.50
298;DHT22;133;49.626;9.680;2023-07-13T07:15:18;20.20;66.60
298;DHT22;133;49.626;9.680;2023-07-13T07:17:44;20.30;67.30
298;DHT22;133;49.626;9.680;2023-07-13T07:20:10;20.30;67.10
298;DHT22;133;49.626;9.680;2023-07-13T07:22:36;20.40;66.90
298;DHT22;133;49.626;9.680;2023-07-13T07:25:01;20.50;66.30
298;DHT22;133;49.626;9.680;2023-07-13T07:27:27;20.50;65.20
298;DHT22;133;49.626;9.680;2023-07-13T07:29:53;20.50;65.20
298;DHT22;133;49.626;9.680;2023-07-13T07:32:19;20.50;65.20
298;DHT22;133;49.626;9.680;2023-07-13T07:34:45;20.50;66.00
298;DHT22;133;49.626;9.680;2023-07-13T07:37:13;20.60;65.60
298;DHT22;133;49.626;9.680;2023-07-13T07:39:39;20.70;63.70
298;DHT22;133;49.626;9.680;2023-07-13T07:42:05;20.80;63.10
298;DHT22;133;49.626;9.680;2023-07-13T07:44:31;20.90;63.10
298;DHT22;133;49.626;9.680;2023-07-13T07:46:57;21.00;62.50
298;DHT22;133;49.626;9.680;2023-07-13T07:49:22;21.10;62.50
298;DHT22;133;49.626;9.680;2023-07-13T07:51:48;21.00;61.50
298;DHT22;133;49.626;9.680;2023-07-13T07:54:14;21.10;61.70
298;DHT22;133;49.626;9.680;2023-07-13T07:56:40;21.20;61.80
298;DHT22;133;49.626;9.680;2023-07-13T07:59:06;21.30;60.40
298;DHT22;133;49.626;9.680;2023-07-13T08:01:31;21.40;59.70
298;DHT22;133;49.626;9.680;2023-07-13T08:03:57;21.50;59.10
298;DHT22;133;49.626;9.680;2023-07-13T08:06:23;21.50;58.20
298;DHT22;133;49.626;9.680;2023-07-13T08:08:48;21.60;58.40
298;DHT22;133;49.626;9.680;2023-07-13T08:11:14;21.80;58.50
298;DHT22;133;49.626;9.680;2023-07-13T08:13:40;21.80;58.40
298;DHT22;133;49.626;9.680;2023-07-13T08:16:06;21.80;57.70
298;DHT22;133;49.626;9.680;2023-07-13T08:18:32;21.90;58.80
298;DHT22;133;49.626;9.680;2023-07-13T08:20:58;22.00;58.00
298;DHT22;133;49.626;9.680;2023-07-13T08:23:25;22.00;58.00
298;DHT22;133;49.626;9.680;2023-07-13T08:25:52;22.10;58.10
298;DHT22;133;49.626;9.680;2023-07-13T08:28:19;22.20;58.50
298;DHT22;133;49.626;9.680;2023-07-13T08:30:45;22.10;57.80
298;DHT22;133;49.626;9.680;2023-07-13T08:33:21;22.20;58.80
298;DHT22;133;49.626;9.680;2023-07-13T08:35:48;22.30;58.60
298;DHT22;133;49.626;9.680;2023-07-13T08:38:14;22.40;58.20
298;DHT22;133;49.626;9.680;2023-07-13T08:40:40;22.40;58.10
298;DHT22;133;49.626;9.680;2023-07-13T08:43:11;22.60;57.70
298;DHT22;133;49.626;9.680;2023-07-13T08:45:51;22.80;57.30
298;DHT22;133;49.626;9.680;2023-07-13T08:48:30;22.90;57.40
298;DHT22;133;49.626;9.680;2023-07-13T08:50:58;23.00;57.20
298;DHT22;133;49.626;9.680;2023-07-13T08:54:12;23.00;56.50
298;DHT22;133;49.626;9.680;2023-07-13T08:56:24;23.00;56.70
298;DHT22;133;49.626;9.680;2023-07-13T08:58:57;23.40;55.50
298;DHT22;133;49.626;9.680;2023-07-13T09:04:16;25.30;52.30
298;DHT22;133;49.626;9.680;2023-07-13T09:09:41;28.20;47.80
298;DHT22;133;49.626;9.680;2023-07-13T09:12:31;28.20;46.00
298;DHT22;133;49.626;9.680;2023-07-13T09:15:00;28.00;47.20
298;DHT22;133;49.626;9.680;2023-07-13T09:17:30;28.30;47.10
298;DHT22;133;49.626;9.680;2023-07-13T09:20:14;29.00;45.90
298;DHT22;133;49.626;9.680;2023-07-13T09:22:42;29.70;44.50
298;DHT22;133;49.626;9.680;2023-07-13T09:25:44;30.20;43.50
298;DHT22;133;49.626;9.680;2023-07-13T09:28:12;30.10;43.40
298;DHT22;133;49.626;9.680;2023-07-13T09:30:54;30.50;43.20
298;DHT22;133;49.626;9.680;2023-07-13T09:33:22;31.10;42.70
298;DHT22;133;49.626;9.680;2023-07-13T09:35:48;31.30;41.60
298;DHT22;133;49.626;9.680;2023-07-13T09:38:28;31.40;41.90
298;DHT22;133;49.626;9.680;2023-07-13T09:43:34;29.30;44.00
298;DHT22;133;49.626;9.680;2023-07-13T09:46:00;28.50;45.20
298;DHT22;133;49.626;9.680;2023-07-13T09:48:36;27.40;46.90
298;DHT22;133;49.626;9.680;2023-07-13T09:51:14;27.00;47.80
298;DHT22;133;49.626;9.680;2023-07-13T09:53:42;26.30;48.90
298;DHT22;133;49.626;9.680;2023-07-13T09:56:19;26.30;49.50
298;DHT22;133;49.626;9.680;2023-07-13T09:58:45;26.80;48.50
298;DHT22;133;49.626;9.680;2023-07-13T10:01:11;28.00;47.20
298;DHT22;133;49.626;9.680;2023-07-13T10:03:37;28.30;46.30
298;DHT22;133;49.626;9.680;2023-07-13T10:06:13;27.70;46.60
298;DHT22;133;49.626;9.680;2023-07-13T10:08:39;27.20;47.10
298;DHT22;133;49.626;9.680;2023-07-13T10:11:34;27.20;47.00
298;DHT22;133;49.626;9.680;2023-07-13T10:14:14;27.30;47.20
298;DHT22;133;49.626;9.680;2023-07-13T10:16:41;27.50;46.70
298;DHT22;133;49.626;9.680;2023-07-13T10:19:27;26.70;47.30
298;DHT22;133;49.626;9.680;2023-07-13T10:21:59;26.00;48.30
298;DHT22;133;49.626;9.680;2023-07-13T10:24:33;25.60;49.40
298;DHT22;133;49.626;9.680;2023-07-13T10:29:35;26.70;48.40
298;DHT22;133;49.626;9.680;2023-07-13T10:32:09;27.60;46.70
298;DHT22;133;49.626;9.680;2023-07-13T10:34:35;28.60;45.70
298;DHT22;133;49.626;9.680;2023-07-13T10:37:06;29.20;43.70
298;DHT22;133;49.626;9.680;2023-07-13T10:39:34;28.50;44.70
298;DHT22;133;49.626;9.680;2023-07-13T10:42:05;28.10;45.50
298;DHT22;133;49.626;9.680;2023-07-13T10:44:33;27.50;45.80
298;DHT22;133;49.626;9.680;2023-07-13T10:47:07;26.80;46.70
298;DHT22;133;49.626;9.680;2023-07-13T10:49:34;26.10;47.90
298;DHT22;133;49.626;9.680;2023-07-13T10:52:01;26.30;48.10
298;DHT22;133;49.626;9.680;2023-07-13T10:54:32;26.80;47.50
298;DHT22;133;49.626;9.680;2023-07-13T10:57:18;27.40;46.10
298;DHT22;133;49.626;9.680;2023-07-13T11:02:28;27.40;45.90
298;DHT22;133;49.626;9.680;2023-07-13T11:04:55;27.30;47.10
298;DHT22;133;49.626;9.680;2023-07-13T11:07:26;27.00;47.50
298;DHT22;133;49.626;9.680;2023-07-13T11:09:55;26.20;48.50
298;DHT22;133;49.626;9.680;2023-07-13T11:22:49;25.10;49.60
298;DHT22;133;49.626;9.680;2023-07-13T11:30:37;25.60;48.80
298;DHT22;133;49.626;9.680;2023-07-13T11:33:20;26.20;48.10
298;DHT22;133;49.626;9.680;2023-07-13T11:38:19;26.50;48.30
298;DHT22;133;49.626;9.680;2023-07-13T11:40:47;26.40;48.30
298;DHT22;133;49.626;9.680;2023-07-13T11:43:14;26.00;49.50
298;DHT22;133;49.626;9.680;2023-07-13T11:45:41;25.70;49.70
298;DHT22;133;49.626;9.680;2023-07-13T11:48:27;25.60;49.80
298;DHT22;133;49.626;9.680;2023-07-13T11:50:57;25.70;50.10
298;DHT22;133;49.626;9.680;2023-07-13T11:53:28;25.60;49.90
298;DHT22;133;49.626;9.680;2023-07-13T11:55:54;25.60;49.50
298;DHT22;133;49.626;9.680;2023-07-13T11:58:24;25.60;49.00
298;DHT22;133;49.626;9.680;2023-07-13T12:00:50;25.70;49.50
298;DHT22;133;49.626;9.680;2023-07-13T12:03:25;26.10;49.00
298;DHT22;133;49.626;9.680;2023-07-13T12:08:23;26.70;48.30
298;DHT22;133;49.626;9.680;2023-07-13T12:11:00;26.80;48.60
298;DHT22;133;49.626;9.680;2023-07-13T12:13:27;26.40;48.50
298;DHT22;133;49.626;9.680;2023-07-13T12:15:54;26.10;49.20
298;DHT22;133;49.626;9.680;2023-07-13T12:18:23;26.20;49.40
298;DHT22;133;49.626;9.680;2023-07-13T12:20:50;26.10;49.40
298;DHT22;133;49.626;9.680;2023-07-13T12:23:25;25.80;49.40
298;DHT22;133;49.626;9.680;2023-07-13T12:25:53;25.50;50.10
298;DHT22;133;49.626;9.680;2023-07-13T12:28:21;25.30;50.10
298;DHT22;133;49.626;9.680;2023-07-13T12:30:48;25.10;51.00
298;DHT22;133;49.626;9.680;2023-07-13T12:33:16;25.10;51.30
298;DHT22;133;49.626;9.680;2023-07-13T12:35:52;25.60;51.00
298;DHT22;133;49.626;9.680;2023-07-13T12:38:18;26.20;50.00
298;DHT22;133;49.626;9.680;2023-07-13T12:40:49;26.40;49.30
298;DHT22;133;49.626;9.680;2023-07-13T12:43:16;26.50;48.60
298;DHT22;133;49.626;9.680;2023-07-13T12:46:02;26.60;48.60
298;DHT22;133;49.626;9.680;2023-07-13T12:48:28;26.70;48.40
298;DHT22;133;49.626;9.680;2023-07-13T12:50:55;26.70;47.90
298;DHT22;133;49.626;9.680;2023-07-13T12:53:24;26.90;47.90
298;DHT22;133;49.626;9.680;2023-07-13T12:55:56;26.70;48.50
298;DHT22;133;49.626;9.680;2023-07-13T12:58:37;26.90;48.80
298;DHT22;133;49.626;9.680;2023-07-13T13:01:05;27.50;49.00
298;DHT22;133;49.626;9.680;2023-07-13T13:06:06;28.20;47.40
298;DHT22;133;49.626;9.680;2023-07-13T13:08:54;27.90;46.70
298;DHT22;133;49.626;9.680;2023-07-13T13:11:23;27.80;46.60
298;DHT22;133;49.626;9.680;2023-07-13T13:13:49;28.10;46.10
298;DHT22;133;49.626;9.680;2023-07-13T13:18:55;27.70;46.80
298;DHT22;133;49.626;9.680;2023-07-13T13:21:23;27.80;46.80
298;DHT22;133;49.626;9.680;2023-07-13T13:23:49;27.40;47.30
298;DHT22;133;49.626;9.680;2023-07-13T13:26:23;27.60;47.20
298;DHT22;133;49.626;9.680;2023-07-13T13:28:49;27.60;47.90
298;DHT22;133;49.626;9.680;2023-07-13T13:31:15;27.60;47.30
298;DHT22;133;49.626;9.680;2023-07-13T13:33:43;27.90;46.80
298;DHT22;133;49.626;9.680;2023-07-13T13:36:19;28.20;46.50
298;DHT22;133;49.626;9.680;2023-07-13T13:38:47;28.20;45.90
298;DHT22;133;49.626;9.680;2023-07-13T13:41:13;28.10;46.20
298;DHT22;133;49.626;9.680;2023-07-13T13:43:41;28.00;46.40
298;DHT22;133;49.626;9.680;2023-07-13T13:48:40;27.20;46.70
298;DHT22;133;49.626;9.680;2023-07-13T13:51:16;27.30;47.00
298;DHT22;133;49.626;9.680;2023-07-13T13:53:43;27.10;46.90
298;DHT22;133;49.626;9.680;2023-07-13T13:56:09;27.10;47.30
298;DHT22;133;49.626;9.680;2023-07-13T13:58:34;27.20;46.70
298;DHT22;133;49.626;9.680;2023-07-13T14:01:00;27.00;46.80
298;DHT22;133;49.626;9.680;2023-07-13T14:03:26;26.90;46.00
298;DHT22;133;49.626;9.680;2023-07-13T14:05:53;27.00;46.50
298;DHT22;133;49.626;9.680;2023-07-13T14:08:20;27.00;45.70
298;DHT22;133;49.626;9.680;2023-07-13T14:10:48;26.90;45.80
298;DHT22;133;49.626;9.680;2023-07-13T14:13:23;26.90;46.30
298;DHT22;133;49.626;9.680;2023-07-13T14:15:52;26.80;46.20
298;DHT22;133;49.626;9.680;2023-07-13T14:18:18;26.60;46.30
298;DHT22;133;49.626;9.680;2023-07-13T14:20:44;26.80;46.60
298;DHT22;133;49.626;9.680;2023-07-13T14:23:12;26.90;46.30
298;DHT22;133;49.626;9.680;2023-07-13T14:25:38;27.00;46.80
298;DHT22;133;49.626;9.680;2023-07-13T14:28:25;27.00;46.40
298;DHT22;133;49.626;9.680;2023-07-13T14:30:52;27.00;46.30
298;DHT22;133;49.626;9.680;2023-07-13T14:33:18;27.10;47.50
298;DHT22;133;49.626;9.680;2023-07-13T14:35:44;27.40;46.20
298;DHT22;133;49.626;9.680;2023-07-13T14:38:13;27.20;45.10
298;DHT22;133;49.626;9.680;2023-07-13T14:40:40;26.80;45.30
298;DHT22;133;49.626;9.680;2023-07-13T14:43:13;26.60;45.70
298;DHT22;133;49.626;9.680;2023-07-13T14:45:41;26.60;46.60
298;DHT22;133;49.626;9.680;2023-07-13T14:48:26;26.60;46.50
298;DHT22;133;49.626;9.680;2023-07-13T14:50:54;26.90;45.70
298;DHT22;133;49.626;9.680;2023-07-13T14:53:21;26.70;45.80
298;DHT22;133;49.626;9.680;2023-07-13T14:55:48;26.60;45.80
298;DHT22;133;49.626;9.680;2023-07-13T14:58:13;26.20;45.40
298;DHT22;133;49.626;9.680;2023-07-13T15:00:39;26.10;46.30
298;DHT22;133;49.626;9.680;2023-07-13T15:03:11;26.30;46.10
298;DHT22;133;49.626;9.680;2023-07-13T15:05:41;26.70;46.00
298;DHT22;133;49.626;9.680;2023-07-13T15:08:09;26.90;45.10
298;DHT22;133;49.626;9.680;2023-07-13T15:10:36;27.10;46.00
298;DHT22;133;49.626;9.680;2023-07-13T15:13:15;27.30;44.90
298;DHT22;133;49.626;9.680;2023-07-13T15:15:45;27.10;45.80
298;DHT22;133;49.626;9.680;2023-07-13T15:18:12;27.30;45.80
298;DHT22;133;49.626;9.680;2023-07-13T15:20:39;27.30;46.10
298;DHT22;133;49.626;9.680;2023-07-13T15:23:04;27.20;46.40
298;DHT22;133;49.626;9.680;2023-07-13T15:25:32;27.10;46.30
298;DHT22;133;49.626;9.680;2023-07-13T15:27:59;26.70;46.00
298;DHT22;133;49.626;9.680;2023-07-13T15:30:42;26.40;46.60
298;DHT22;133;49.626;9.680;2023-07-13T15:33:15;26.50;47.20
298;DHT22;133;49.626;9.680;2023-07-13T15:35:42;26.70;47.00
298;DHT22;133;49.626;9.680;2023-07-13T15:38:38;27.10;46.70
298;DHT22;133;49.626;9.680;2023-07-13T15:41:24;27.20;46.90
298;DHT22;133;49.626;9.680;2023-07-13T15:43:52;27.50;46.50
298;DHT22;133;49.626;9.680;2023-07-13T15:46:19;27.40;46.70
298;DHT22;133;49.626;9.680;2023-07-13T15:48:51;27.50;46.10
298;DHT22;133;49.626;9.680;2023-07-13T15:51:24;27.70;45.80
298;DHT22;133;49.626;9.680;2023-07-13T15:53:53;27.70;45.70
298;DHT22;133;49.626;9.680;2023-07-13T15:56:26;27.50;45.70
298;DHT22;133;49.626;9.680;2023-07-13T15:58:52;27.50;45.70
298;DHT22;133;49.626;9.680;2023-07-13T16:01:19;27.60;46.40
298;DHT22;133;49.626;9.680;2023-07-13T16:07:03;27.40;46.00
298;DHT22;133;49.626;9.680;2023-07-13T16:09:49;27.30;46.70
298;DHT22;133;49.626;9.680;2023-07-13T16:12:15;27.30;46.50
298;DHT22;133;49.626;9.680;2023-07-13T16:14:42;27.10;46.90
298;DHT22;133;49.626;9.680;2023-07-13T16:17:12;26.70;46.40
298;DHT22;133;49.626;9.680;2023-07-13T16:19:38;26.50;47.40
298;DHT22;133;49.626;9.680;2023-07-13T16:22:08;26.50;47.90
298;DHT22;133;49.626;9.680;2023-07-13T16:24:39;26.60;48.30
298;DHT22;133;49.626;9.680;2023-07-13T16:27:05;26.70;47.90
298;DHT22;133;49.626;9.680;2023-07-13T16:29:38;26.80;47.20
298;DHT22;133;49.626;9.680;2023-07-13T16:32:12;26.80;47.10
298;DHT22;133;49.626;9.680;2023-07-13T16:34:48;26.90;47.20
298;DHT22;133;49.626;9.680;2023-07-13T16:37:25;26.80;48.10
298;DHT22;133;49.626;9.680;2023-07-13T16:39:57;26.70;47.40
298;DHT22;133;49.626;9.680;2023-07-13T16:42:24;26.60;47.40
298;DHT22;133;49.626;9.680;2023-07-13T16:44:51;26.60;48.00
298;DHT22;133;49.626;9.680;2023-07-13T16:47:17;26.80;48.00
298;DHT22;133;49.626;9.680;2023-07-13T16:49:44;26.80;47.50
298;DHT22;133;49.626;9.680;2023-07-13T16:52:12;26.80;47.40
298;DHT22;133;49.626;9.680;2023-07-13T16:54:38;26.60;47.40
298;DHT22;133;49.626;9.680;2023-07-13T16:57:30;26.60;47.70
298;DHT22;133;49.626;9.680;2023-07-13T16:59:58;26.50;48.00
298;DHT22;133;49.626;9.680;2023-07-13T17:02:35;26.40;47.80
298;DHT22;133;49.626;9.680;2023-07-13T17:05:02;26.30;47.80
298;DHT22;133;49.626;9.680;2023-07-13T17:07:28;26.40;47.70
298;DHT22;133;49.626;9.680;2023-07-13T17:09:56;26.40;47.40
298;DHT22;133;49.626;9.680;2023-07-13T17:12:22;26.20;47.60
298;DHT22;133;49.626;9.680;2023-07-13T17:14:48;26.10;48.60
298;DHT22;133;49.626;9.680;2023-07-13T17:17:18;26.00;48.20
298;DHT22;133;49.626;9.680;2023-07-13T17:19:44;26.20;47.80
298;DHT22;133;49.626;9.680;2023-07-13T17:22:13;26.40;48.30
298;DHT22;133;49.626;9.680;2023-07-13T17:24:47;26.30;47.70
298;DHT22;133;49.626;9.680;2023-07-13T17:27:14;26.20;48.00
298;DHT22;133;49.626;9.680;2023-07-13T17:29:41;26.10;48.00